sensor_id;sensor_type;location;lat;lon;timestamp;P1;durP1;ratioP1;P2;durP2;ratioP2
54561;SDS011;40456;53.358;-1.486;2023-03-01T00:01:06;1.98;;;1.17;;
54561;SDS011;40456;53.358;-1.486;2023-03-01T00:03:33;2.55;;;1.10;;
54561;SDS011;40456;53.358;-1.486;2023-03-01T00:05:59;2.05;;;1.00;;
54561;SDS011;40456;53.358;-1.486;2023-03-01T00:08:26;2.25;;;1.30;;
54561;SDS011;40456;53.358;-1.486;2023-03-01T00:13:37;2.20;;;1.52;;
54561;SDS011;40456;53.358;-1.486;2023-03-01T00:16:07;1.45;;;1.35;;
54561;SDS011;40456;53.358;-1.486;2023-03-01T00:18:34;2.55;;;1.30;;
54561;SDS011;40456;53.358;-1.486;2023-03-01T00:21:00;1.98;;;1.52;;
54561;SDS011;40456;53.358;-1.486;2023-03-01T00:23:26;1.65;;;1.52;;
54561;SDS011;40456;53.358;-1.486;2023-03-01T00:25:51;5.55;;;1.98;;
54561;SDS011;40456;53.358;-1.486;2023-03-01T00:28:17;1.90;;;1.70;;
54561;SDS011;40456;53.358;-1.486;2023-03-01T00:30:43;3.47;;;1.60;;
54561;SDS011;40456;53.358;-1.486;2023-03-01T00:33:09;3.33;;;1.27;;
54561;SDS011;40456;53.358;-1.486;2023-03-01T00:35:34;1.35;;;1.08;;
54561;SDS011;40456;53.358;-1.486;2023-03-01T00:38:00;2.40;;;1.42;;
54561;SDS011;40456;53.358;-1.486;2023-03-01T00:40:26;1.30;;;1.05;;
54561;SDS011;40456;53.358;-1.486;2023-03-01T00:42:52;2.03;;;1.35;;
54561;SDS011;40456;53.358;-1.486;2023-03-01T00:45:17;2.25;;;1.65;;
54561;SDS011;40456;53.358;-1.486;2023-03-01T00:47:43;2.35;;;1.02;;
54561;SDS011;40456;53.358;-1.486;2023-03-01T00:50:09;2.53;;;1.48;;
54561;SDS011;40456;53.358;-1.486;2023-03-01T00:52:35;2.58;;;1.75;;
54561;SDS011;40456;53.358;-1.486;2023-03-01T00:55:01;2.42;;;1.70;;
54561;SDS011;40456;53.358;-1.486;2023-03-01T00:57:26;3.78;;;2.03;;
54561;SDS011;40456;53.358;-1.486;2023-03-01T00:59:51;2.97;;;1.63;;
54561;SDS011;40456;53.358;-1.486;2023-03-01T01:02:17;4.30;;;1.58;;
54561;SDS011;40456;53.358;-1.486;2023-03-01T01:04:44;4.20;;;1.85;;
54561;SDS011;40456;53.358;-1.486;2023-03-01T01:07:09;2.42;;;1.63;;
54561;SDS011;40456;53.358;-1.486;2023-03-01T01:09:35;1.45;;;1.13;;
54561;SDS011;40456;53.358;-1.486;2023-03-01T01:12:01;5.32;;;1.50;;
54561;SDS011;40456;53.358;-1.486;2023-03-01T01:14:27;3.50;;;1.60;;
54561;SDS011;40456;53.358;-1.486;2023-03-01T01:16:52;2.55;;;1.60;;
54561;SDS011;40456;53.358;-1.486;2023-03-01T01:19:18;2.70;;;1.08;;
54561;SDS011;40456;53.358;-1.486;2023-03-01T01:21:43;1.75;;;1.00;;
54561;SDS011;40456;53.358;-1.486;2023-03-01T01:24:09;4.03;;;1.30;;
54561;SDS011;40456;53.358;-1.486;2023-03-01T01:26:35;1.40;;;1.13;;
54561;SDS011;40456;53.358;-1.486;2023-03-01T01:29:01;1.27;;;1.00;;
54561;SDS011;40456;53.358;-1.486;2023-03-01T01:31:28;2.10;;;1.10;;
54561;SDS011;40456;53.358;-1.486;2023-03-01T01:33:54;2.25;;;0.85;;
54561;SDS011;40456;53.358;-1.486;2023-03-01T01:36:21;1.48;;;1.15;;
54561;SDS011;40456;53.358;-1.486;2023-03-01T01:38:46;2.08;;;1.25;;
54561;SDS011;40456;53.358;-1.486;2023-03-01T01:41:12;2.55;;;1.25;;
54561;SDS011;40456;53.358;-1.486;2023-03-01T01:43:46;1.15;;;1.10;;
54561;SDS011;40456;53.358;-1.486;2023-03-01T01:46:46;5.10;;;1.23;;
54561;SDS011;40456;53.358;-1.486;2023-03-01T01:51:51;2.10;;;1.52;;
54561;SDS011;40456;53.358;-1.486;2023-03-01T01:54:50;3.97;;;1.30;;
54561;SDS011;40456;53.358;-1.486;2023-03-01T01:57:35;4.75;;;1.85;;
54561;SDS011;40456;53.358;-1.486;2023-03-01T02:00:09;2.65;;;1.33;;
54561;SDS011;40456;53.358;-1.486;2023-03-01T02:02:37;3.15;;;1.48;;
54561;SDS011;40456;53.358;-1.486;2023-03-01T02:05:09;3.08;;;1.70;;
54561;SDS011;40456;53.358;-1.486;2023-03-01T02:07:54;1.65;;;1.20;;
54561;SDS011;40456;53.358;-1.486;2023-03-01T02:10:22;2.13;;;1.20;;
54561;SDS011;40456;53.358;-1.486;2023-03-01T02:12:48;1.85;;;1.15;;
54561;SDS011;40456;53.358;-1.486;2023-03-01T02:15:15;2.08;;;1.42;;
54561;SDS011;40456;53.358;-1.486;2023-03-01T02:17:40;3.78;;;1.35;;
54561;SDS011;40456;53.358;-1.486;2023-03-01T02:22:56;3.10;;;1.23;;
54561;SDS011;40456;53.358;-1.486;2023-03-01T02:25:27;2.13;;;0.98;;
54561;SDS011;40456;53.358;-1.486;2023-03-01T02:30:42;1.08;;;0.70;;
54561;SDS011;40456;53.358;-1.486;2023-03-01T02:33:28;1.33;;;0.95;;
54561;SDS011;40456;53.358;-1.486;2023-03-01T02:35:58;1.15;;;0.90;;
54561;SDS011;40456;53.358;-1.486;2023-03-01T02:38:25;2.13;;;1.08;;
54561;SDS011;40456;53.358;-1.486;2023-03-01T02:40:51;3.80;;;1.27;;
54561;SDS011;40456;53.358;-1.486;2023-03-01T02:43:17;2.63;;;1.17;;
54561;SDS011;40456;53.358;-1.486;2023-03-01T02:45:51;2.03;;;0.90;;
54561;SDS011;40456;53.358;-1.486;2023-03-01T02:48:18;1.38;;;1.10;;
54561;SDS011;40456;53.358;-1.486;2023-03-01T02:53:22;1.05;;;0.95;;
54561;SDS011;40456;53.358;-1.486;2023-03-01T02:55:53;2.50;;;0.95;;
54561;SDS011;40456;53.358;-1.486;2023-03-01T02:58:18;1.35;;;1.10;;
54561;SDS011;40456;53.358;-1.486;2023-03-01T03:00:44;1.95;;;1.10;;
54561;SDS011;40456;53.358;-1.486;2023-03-01T03:03:15;1.55;;;1.00;;
54561;SDS011;40456;53.358;-1.486;2023-03-01T03:05:41;1.30;;;1.10;;
54561;SDS011;40456;53.358;-1.486;2023-03-01T03:08:07;1.27;;;0.93;;
54561;SDS011;40456;53.358;-1.486;2023-03-01T03:10:35;2.28;;;1.15;;
54561;SDS011;40456;53.358;-1.486;2023-03-01T03:13:06;1.15;;;1.05;;
54561;SDS011;40456;53.358;-1.486;2023-03-01T03:15:33;1.48;;;1.27;;
54561;SDS011;40456;53.358;-1.486;2023-03-01T03:18:04;2.38;;;1.58;;
54561;SDS011;40456;53.358;-1.486;2023-03-01T03:20:32;1.08;;;1.00;;
54561;SDS011;40456;53.358;-1.486;2023-03-01T03:22:58;1.52;;;1.10;;
54561;SDS011;40456;53.358;-1.486;2023-03-01T03:25:24;1.27;;;1.15;;
54561;SDS011;40456;53.358;-1.486;2023-03-01T03:27:50;1.30;;;0.80;;
54561;SDS011;40456;53.358;-1.486;2023-03-01T03:30:22;1.05;;;0.98;;
54561;SDS011;40456;53.358;-1.486;2023-03-01T03:32:48;1.30;;;1.08;;
54561;SDS011;40456;53.358;-1.486;2023-03-01T03:35:17;1.30;;;0.95;;
54561;SDS011;40456;53.358;-1.486;2023-03-01T03:38:06;1.80;;;0.95;;
54561;SDS011;40456;53.358;-1.486;2023-03-01T03:40:40;2.78;;;0.90;;
54561;SDS011;40456;53.358;-1.486;2023-03-01T03:43:14;0.80;;;0.80;;
54561;SDS011;40456;53.358;-1.486;2023-03-01T03:45:41;0.90;;;0.90;;
54561;SDS011;40456;53.358;-1.486;2023-03-01T03:48:09;1.38;;;1.20;;
54561;SDS011;40456;53.358;-1.486;2023-03-01T03:50:35;1.15;;;0.90;;
54561;SDS011;40456;53.358;-1.486;2023-03-01T03:53:02;1.00;;;0.80;;
54561;SDS011;40456;53.358;-1.486;2023-03-01T03:55:29;1.42;;;1.00;;
54561;SDS011;40456;53.358;-1.486;2023-03-01T03:57:56;0.45;;;0.45;;
54561;SDS011;40456;53.358;-1.486;2023-03-01T04:00:23;1.10;;;1.00;;
54561;SDS011;40456;53.358;-1.486;2023-03-01T04:02:49;1.10;;;1.00;;
54561;SDS011;40456;53.358;-1.486;2023-03-01T04:05:16;1.20;;;1.10;;
54561;SDS011;40456;53.358;-1.486;2023-03-01T04:07:42;1.52;;;1.40;;
54561;SDS011;40456;53.358;-1.486;2023-03-01T04:10:10;0.90;;;0.82;;
54561;SDS011;40456;53.358;-1.486;2023-03-01T04:12:36;2.28;;;1.35;;
54561;SDS011;40456;53.358;-1.486;2023-03-01T04:15:03;1.17;;;1.08;;
54561;SDS011;40456;53.358;-1.486;2023-03-01T04:17:37;1.45;;;1.33;;
54561;SDS011;40456;53.358;-1.486;2023-03-01T04:20:06;1.67;;;1.45;;
54561;SDS011;40456;53.358;-1.486;2023-03-01T04:22:39;1.77;;;1.67;;
54561;SDS011;40456;53.358;-1.486;2023-03-01T04:25:05;2.65;;;1.50;;
54561;SDS011;40456;53.358;-1.486;2023-03-01T04:27:34;0.95;;;0.95;;
54561;SDS011;40456;53.358;-1.486;2023-03-01T04:30:00;1.67;;;1.05;;
54561;SDS011;40456;53.358;-1.486;2023-03-01T04:32:26;1.50;;;1.20;;
54561;SDS011;40456;53.358;-1.486;2023-03-01T04:34:51;2.45;;;1.42;;
54561;SDS011;40456;53.358;-1.486;2023-03-01T04:37:16;2.08;;;1.35;;
54561;SDS011;40456;53.358;-1.486;2023-03-01T04:39:42;1.30;;;1.20;;
54561;SDS011;40456;53.358;-1.486;2023-03-01T04:42:12;2.20;;;1.20;;
54561;SDS011;40456;53.358;-1.486;2023-03-01T04:44:37;1.08;;;0.95;;
54561;SDS011;40456;53.358;-1.486;2023-03-01T04:47:03;1.25;;;0.98;;
54561;SDS011;40456;53.358;-1.486;2023-03-01T04:49:28;1.80;;;1.40;;
54561;SDS011;40456;53.358;-1.486;2023-03-01T04:51:54;2.10;;;1.38;;
54561;SDS011;40456;53.358;-1.486;2023-03-01T04:54:19;2.78;;;1.48;;
54561;SDS011;40456;53.358;-1.486;2023-03-01T04:56:44;1.52;;;1.42;;
54561;SDS011;40456;53.358;-1.486;2023-03-01T04:59:10;1.33;;;1.23;;
54561;SDS011;40456;53.358;-1.486;2023-03-01T05:01:37;3.20;;;1.85;;
54561;SDS011;40456;53.358;-1.486;2023-03-01T05:04:03;4.07;;;1.65;;
54561;SDS011;40456;53.358;-1.486;2023-03-01T05:06:30;3.17;;;1.40;;
54561;SDS011;40456;53.358;-1.486;2023-03-01T05:08:56;2.55;;;1.35;;
54561;SDS011;40456;53.358;-1.486;2023-03-01T05:11:21;1.77;;;1.10;;
54561;SDS011;40456;53.358;-1.486;2023-03-01T05:13:47;2.03;;;1.58;;
54561;SDS011;40456;53.358;-1.486;2023-03-01T05:16:14;1.20;;;1.10;;
54561;SDS011;40456;53.358;-1.486;2023-03-01T05:18:41;1.50;;;1.40;;
54561;SDS011;40456;53.358;-1.486;2023-03-01T05:21:11;1.63;;;1.40;;
54561;SDS011;40456;53.358;-1.486;2023-03-01T05:23:40;2.70;;;1.55;;
54561;SDS011;40456;53.358;-1.486;2023-03-01T05:26:06;1.75;;;1.35;;
54561;SDS011;40456;53.358;-1.486;2023-03-01T05:28:32;1.70;;;1.60;;
54561;SDS011;40456;53.358;-1.486;2023-03-01T05:30:57;2.42;;;2.08;;
54561;SDS011;40456;53.358;-1.486;2023-03-01T05:33:23;2.50;;;1.92;;
54561;SDS011;40456;53.358;-1.486;2023-03-01T05:35:49;2.85;;;1.90;;
54561;SDS011;40456;53.358;-1.486;2023-03-01T05:38:16;1.75;;;1.55;;
54561;SDS011;40456;53.358;-1.486;2023-03-01T05:40:42;4.07;;;1.88;;
54561;SDS011;40456;53.358;-1.486;2023-03-01T05:43:09;3.65;;;2.30;;
54561;SDS011;40456;53.358;-1.486;2023-03-01T05:45:35;2.53;;;2.00;;
54561;SDS011;40456;53.358;-1.486;2023-03-01T05:48:02;2.42;;;2.10;;
54561;SDS011;40456;53.358;-1.486;2023-03-01T05:50:28;1.92;;;1.50;;
54561;SDS011;40456;53.358;-1.486;2023-03-01T05:53:02;2.03;;;1.55;;
54561;SDS011;40456;53.358;-1.486;2023-03-01T05:55:35;1.92;;;1.40;;
54561;SDS011;40456;53.358;-1.486;2023-03-01T05:58:02;2.63;;;1.55;;
54561;SDS011;40456;53.358;-1.486;2023-03-01T06:00:29;2.08;;;1.60;;
54561;SDS011;40456;53.358;-1.486;2023-03-01T06:02:55;3.67;;;1.20;;
54561;SDS011;40456;53.358;-1.486;2023-03-01T06:05:22;2.20;;;1.60;;
54561;SDS011;40456;53.358;-1.486;2023-03-01T06:07:47;2.17;;;1.50;;
54561;SDS011;40456;53.358;-1.486;2023-03-01T06:10:13;2.20;;;1.30;;
54561;SDS011;40456;53.358;-1.486;2023-03-01T06:12:40;1.27;;;1.15;;
54561;SDS011;40456;53.358;-1.486;2023-03-01T06:15:07;1.90;;;1.20;;
54561;SDS011;40456;53.358;-1.486;2023-03-01T06:17:35;1.27;;;1.15;;
54561;SDS011;40456;53.358;-1.486;2023-03-01T06:20:03;1.10;;;1.00;;
54561;SDS011;40456;53.358;-1.486;2023-03-01T06:22:29;0.85;;;0.85;;
54561;SDS011;40456;53.358;-1.486;2023-03-01T06:24:55;1.23;;;1.00;;
54561;SDS011;40456;53.358;-1.486;2023-03-01T06:27:20;1.50;;;0.93;;
54561;SDS011;40456;53.358;-1.486;2023-03-01T06:29:45;2.25;;;1.05;;
54561;SDS011;40456;53.358;-1.486;2023-03-01T06:32:11;2.55;;;1.10;;
54561;SDS011;40456;53.358;-1.486;2023-03-01T06:34:36;1.10;;;0.93;;
54561;SDS011;40456;53.358;-1.486;2023-03-01T06:37:01;1.02;;;0.93;;
54561;SDS011;40456;53.358;-1.486;2023-03-01T06:39:30;1.35;;;0.90;;
54561;SDS011;40456;53.358;-1.486;2023-03-01T06:41:56;1.17;;;1.00;;
54561;SDS011;40456;53.358;-1.486;2023-03-01T06:44:21;1.85;;;1.00;;
54561;SDS011;40456;53.358;-1.486;2023-03-01T06:46:46;1.63;;;0.95;;
54561;SDS011;40456;53.358;-1.486;2023-03-01T06:49:13;0.80;;;0.80;;
54561;SDS011;40456;53.358;-1.486;2023-03-01T06:51:44;0.70;;;0.70;;
54561;SDS011;40456;53.358;-1.486;2023-03-01T06:54:11;0.88;;;0.80;;
54561;SDS011;40456;53.358;-1.486;2023-03-01T06:56:36;2.15;;;1.13;;
54561;SDS011;40456;53.358;-1.486;2023-03-01T06:59:02;1.40;;;1.30;;
54561;SDS011;40456;53.358;-1.486;2023-03-01T07:01:28;2.78;;;0.90;;
54561;SDS011;40456;53.358;-1.486;2023-03-01T07:03:54;1.65;;;1.35;;
54561;SDS011;40456;53.358;-1.486;2023-03-01T07:06:19;1.67;;;1.08;;
54561;SDS011;40456;53.358;-1.486;2023-03-01T07:08:45;1.52;;;0.98;;
54561;SDS011;40456;53.358;-1.486;2023-03-01T07:11:11;0.82;;;0.82;;
54561;SDS011;40456;53.358;-1.486;2023-03-01T07:13:36;1.33;;;0.93;;
54561;SDS011;40456;53.358;-1.486;2023-03-01T07:16:02;1.45;;;0.70;;
54561;SDS011;40456;53.358;-1.486;2023-03-01T07:18:27;2.85;;;1.02;;
54561;SDS011;40456;53.358;-1.486;2023-03-01T07:20:53;2.38;;;0.98;;
54561;SDS011;40456;53.358;-1.486;2023-03-01T07:23:18;1.40;;;0.70;;
54561;SDS011;40456;53.358;-1.486;2023-03-01T07:25:43;1.35;;;0.90;;
54561;SDS011;40456;53.358;-1.486;2023-03-01T07:28:09;1.30;;;0.80;;
54561;SDS011;40456;53.358;-1.486;2023-03-01T07:30:34;1.55;;;0.80;;
54561;SDS011;40456;53.358;-1.486;2023-03-01T07:33:00;1.95;;;0.95;;
54561;SDS011;40456;53.358;-1.486;2023-03-01T07:35:26;1.58;;;0.70;;
54561;SDS011;40456;53.358;-1.486;2023-03-01T07:37:52;2.67;;;0.80;;
54561;SDS011;40456;53.358;-1.486;2023-03-01T07:40:18;2.35;;;0.60;;
54561;SDS011;40456;53.358;-1.486;2023-03-01T07:42:43;0.75;;;0.55;;
54561;SDS011;40456;53.358;-1.486;2023-03-01T07:45:09;1.95;;;1.27;;
54561;SDS011;40456;53.358;-1.486;2023-03-01T07:47:35;0.80;;;0.75;;
54561;SDS011;40456;53.358;-1.486;2023-03-01T07:50:00;1.05;;;0.63;;
54561;SDS011;40456;53.358;-1.486;2023-03-01T07:52:26;1.55;;;0.80;;
54561;SDS011;40456;53.358;-1.486;2023-03-01T07:54:52;1.85;;;0.73;;
54561;SDS011;40456;53.358;-1.486;2023-03-01T07:57:17;0.80;;;0.70;;
54561;SDS011;40456;53.358;-1.486;2023-03-01T07:59:42;0.95;;;0.60;;
54561;SDS011;40456;53.358;-1.486;2023-03-01T08:02:08;2.03;;;1.15;;
54561;SDS011;40456;53.358;-1.486;2023-03-01T08:04:35;4.45;;;0.90;;
54561;SDS011;40456;53.358;-1.486;2023-03-01T08:07:00;2.30;;;0.70;;
54561;SDS011;40456;53.358;-1.486;2023-03-01T08:09:25;0.80;;;0.63;;
54561;SDS011;40456;53.358;-1.486;2023-03-01T08:11:51;0.95;;;0.52;;
54561;SDS011;40456;53.358;-1.486;2023-03-01T08:14:16;3.47;;;0.85;;
54561;SDS011;40456;53.358;-1.486;2023-03-01T08:16:42;1.98;;;0.47;;
54561;SDS011;40456;53.358;-1.486;2023-03-01T08:19:11;2.67;;;0.80;;
54561;SDS011;40456;53.358;-1.486;2023-03-01T08:21:37;2.17;;;0.73;;
54561;SDS011;40456;53.358;-1.486;2023-03-01T08:24:05;0.57;;;0.50;;
54561;SDS011;40456;53.358;-1.486;2023-03-01T08:26:32;1.23;;;0.50;;
54561;SDS011;40456;53.358;-1.486;2023-03-01T08:28:59;0.63;;;0.47;;
54561;SDS011;40456;53.358;-1.486;2023-03-01T08:31:26;1.52;;;0.77;;
54561;SDS011;40456;53.358;-1.486;2023-03-01T08:33:56;4.07;;;1.38;;
54561;SDS011;40456;53.358;-1.486;2023-03-01T08:36:28;2.08;;;0.55;;
54561;SDS011;40456;53.358;-1.486;2023-03-01T08:38:55;1.40;;;0.70;;
54561;SDS011;40456;53.358;-1.486;2023-03-01T08:41:20;1.38;;;0.73;;
54561;SDS011;40456;53.358;-1.486;2023-03-01T08:43:46;2.00;;;0.80;;
54561;SDS011;40456;53.358;-1.486;2023-03-01T08:46:12;4.63;;;0.90;;
54561;SDS011;40456;53.358;-1.486;2023-03-01T08:48:37;1.63;;;0.90;;
54561;SDS011;40456;53.358;-1.486;2023-03-01T08:51:11;1.20;;;0.90;;
54561;SDS011;40456;53.358;-1.486;2023-03-01T08:53:38;0.80;;;0.68;;
54561;SDS011;40456;53.358;-1.486;2023-03-01T08:56:04;2.28;;;0.60;;
54561;SDS011;40456;53.358;-1.486;2023-03-01T08:58:29;0.98;;;0.60;;
54561;SDS011;40456;53.358;-1.486;2023-03-01T09:00:55;1.15;;;0.55;;
54561;SDS011;40456;53.358;-1.486;2023-03-01T09:03:21;1.10;;;0.47;;
54561;SDS011;40456;53.358;-1.486;2023-03-01T09:05:48;2.10;;;0.50;;
54561;SDS011;40456;53.358;-1.486;2023-03-01T09:08:15;0.50;;;0.50;;
54561;SDS011;40456;53.358;-1.486;2023-03-01T09:10:41;3.88;;;0.90;;
54561;SDS011;40456;53.358;-1.486;2023-03-01T09:13:07;1.95;;;0.40;;
54561;SDS011;40456;53.358;-1.486;2023-03-01T09:15:32;2.95;;;0.50;;
54561;SDS011;40456;53.358;-1.486;2023-03-01T09:17:58;2.33;;;0.60;;
54561;SDS011;40456;53.358;-1.486;2023-03-01T09:20:24;3.08;;;0.50;;
54561;SDS011;40456;53.358;-1.486;2023-03-01T09:22:49;2.33;;;0.70;;
54561;SDS011;40456;53.358;-1.486;2023-03-01T09:25:15;1.55;;;0.60;;
54561;SDS011;40456;53.358;-1.486;2023-03-01T09:27:40;2.35;;;0.80;;
54561;SDS011;40456;53.358;-1.486;2023-03-01T09:30:06;1.80;;;0.85;;
54561;SDS011;40456;53.358;-1.486;2023-03-01T09:32:32;2.70;;;0.65;;
54561;SDS011;40456;53.358;-1.486;2023-03-01T09:34:57;2.38;;;0.70;;
54561;SDS011;40456;53.358;-1.486;2023-03-01T09:37:28;2.13;;;0.68;;
54561;SDS011;40456;53.358;-1.486;2023-03-01T09:39:53;1.67;;;0.65;;
54561;SDS011;40456;53.358;-1.486;2023-03-01T09:42:19;1.17;;;0.60;;
54561;SDS011;40456;53.358;-1.486;2023-03-01T09:44:48;0.77;;;0.60;;
54561;SDS011;40456;53.358;-1.486;2023-03-01T09:47:18;0.70;;;0.43;;
54561;SDS011;40456;53.358;-1.486;2023-03-01T09:49:55;0.80;;;0.60;;
54561;SDS011;40456;53.358;-1.486;2023-03-01T09:52:43;2.20;;;1.30;;
54561;SDS011;40456;53.358;-1.486;2023-03-01T09:55:25;0.88;;;0.70;;
54561;SDS011;40456;53.358;-1.486;2023-03-01T10:03:52;1.15;;;0.70;;
54561;SDS011;40456;53.358;-1.486;2023-03-01T10:06:22;2.42;;;0.80;;
54561;SDS011;40456;53.358;-1.486;2023-03-01T10:11:24;1.40;;;0.70;;
54561;SDS011;40456;53.358;-1.486;2023-03-01T10:14:05;1.60;;;0.70;;
54561;SDS011;40456;53.358;-1.486;2023-03-01T10:19:11;4.47;;;0.90;;
54561;SDS011;40456;53.358;-1.486;2023-03-01T10:21:41;2.47;;;1.15;;
54561;SDS011;40456;53.358;-1.486;2023-03-01T10:24:13;1.67;;;0.80;;
54561;SDS011;40456;53.358;-1.486;2023-03-01T10:29:10;3.67;;;0.77;;
54561;SDS011;40456;53.358;-1.486;2023-03-01T10:31:43;1.00;;;0.60;;
54561;SDS011;40456;53.358;-1.486;2023-03-01T10:34:15;2.83;;;0.85;;
54561;SDS011;40456;53.358;-1.486;2023-03-01T10:36:43;1.38;;;0.60;;
54561;SDS011;40456;53.358;-1.486;2023-03-01T10:39:27;1.77;;;0.70;;
54561;SDS011;40456;53.358;-1.486;2023-03-01T10:47:00;3.45;;;1.02;;
54561;SDS011;40456;53.358;-1.486;2023-03-01T10:49:26;0.55;;;0.55;;
54561;SDS011;40456;53.358;-1.486;2023-03-01T10:51:52;3.78;;;0.70;;
54561;SDS011;40456;53.358;-1.486;2023-03-01T10:56:57;1.08;;;0.43;;
54561;SDS011;40456;53.358;-1.486;2023-03-01T10:59:29;1.08;;;0.60;;
54561;SDS011;40456;53.358;-1.486;2023-03-01T11:04:39;0.40;;;0.40;;
54561;SDS011;40456;53.358;-1.486;2023-03-01T11:07:07;1.58;;;0.50;;
54561;SDS011;40456;53.358;-1.486;2023-03-01T11:09:33;1.42;;;0.73;;
54561;SDS011;40456;53.358;-1.486;2023-03-01T11:12:05;0.90;;;0.50;;
54561;SDS011;40456;53.358;-1.486;2023-03-01T11:14:39;1.05;;;0.68;;
54561;SDS011;40456;53.358;-1.486;2023-03-01T11:19:44;1.00;;;0.60;;
54561;SDS011;40456;53.358;-1.486;2023-03-01T11:22:29;3.08;;;0.75;;
54561;SDS011;40456;53.358;-1.486;2023-03-01T11:24:55;1.98;;;0.65;;
54561;SDS011;40456;53.358;-1.486;2023-03-01T11:32:24;1.70;;;0.80;;
54561;SDS011;40456;53.358;-1.486;2023-03-01T11:34:54;0.88;;;0.60;;
54561;SDS011;40456;53.358;-1.486;2023-03-01T11:42:50;3.15;;;0.70;;
54561;SDS011;40456;53.358;-1.486;2023-03-01T11:45:22;0.82;;;0.40;;
54561;SDS011;40456;53.358;-1.486;2023-03-01T11:48:00;2.78;;;0.80;;
54561;SDS011;40456;53.358;-1.486;2023-03-01T11:50:47;1.30;;;0.80;;
54561;SDS011;40456;53.358;-1.486;2023-03-01T11:53:18;2.13;;;0.80;;
54561;SDS011;40456;53.358;-1.486;2023-03-01T12:01:56;0.40;;;0.38;;
54561;SDS011;40456;53.358;-1.486;2023-03-01T12:07:20;0.88;;;0.52;;
54561;SDS011;40456;53.358;-1.486;2023-03-01T12:10:05;0.82;;;0.45;;
54561;SDS011;40456;53.358;-1.486;2023-03-01T12:42:35;1.70;;;0.70;;
54561;SDS011;40456;53.358;-1.486;2023-03-01T12:51:02;3.70;;;0.90;;
54561;SDS011;40456;53.358;-1.486;2023-03-01T12:53:32;2.28;;;0.77;;
54561;SDS011;40456;53.358;-1.486;2023-03-01T12:56:02;2.70;;;0.65;;
54561;SDS011;40456;53.358;-1.486;2023-03-01T13:20:29;0.43;;;0.32;;
54561;SDS011;40456;53.358;-1.486;2023-03-01T13:23:06;3.10;;;0.65;;
54561;SDS011;40456;53.358;-1.486;2023-03-01T13:25:32;1.88;;;0.73;;
54561;SDS011;40456;53.358;-1.486;2023-03-01T13:31:06;3.25;;;0.47;;
54561;SDS011;40456;53.358;-1.486;2023-03-01T13:33:37;4.97;;;0.75;;
54561;SDS011;40456;53.358;-1.486;2023-03-01T13:36:06;1.15;;;0.45;;
54561;SDS011;40456;53.358;-1.486;2023-03-01T13:46:51;2.08;;;0.93;;
54561;SDS011;40456;53.358;-1.486;2023-03-01T13:49:23;2.47;;;0.55;;
54561;SDS011;40456;53.358;-1.486;2023-03-01T13:51:50;2.95;;;0.40;;
54561;SDS011;40456;53.358;-1.486;2023-03-01T13:54:26;1.23;;;0.50;;
54561;SDS011;40456;53.358;-1.486;2023-03-01T13:56:55;2.20;;;0.55;;
54561;SDS011;40456;53.358;-1.486;2023-03-01T13:59:21;1.23;;;0.38;;
54561;SDS011;40456;53.358;-1.486;2023-03-01T14:01:58;0.93;;;0.50;;
54561;SDS011;40456;53.358;-1.486;2023-03-01T14:07:08;1.40;;;0.30;;
54561;SDS011;40456;53.358;-1.486;2023-03-01T14:09:41;2.45;;;0.28;;
54561;SDS011;40456;53.358;-1.486;2023-03-01T14:14:41;2.30;;;0.35;;
54561;SDS011;40456;53.358;-1.486;2023-03-01T14:20:11;5.25;;;0.85;;
54561;SDS011;40456;53.358;-1.486;2023-03-01T14:22:40;4.88;;;0.82;;
54561;SDS011;40456;53.358;-1.486;2023-03-01T14:25:16;2.28;;;0.63;;
54561;SDS011;40456;53.358;-1.486;2023-03-01T14:27:54;2.13;;;0.45;;
54561;SDS011;40456;53.358;-1.486;2023-03-01T14:32:54;3.22;;;1.20;;
54561;SDS011;40456;53.358;-1.486;2023-03-01T14:35:28;1.80;;;0.73;;
54561;SDS011;40456;53.358;-1.486;2023-03-01T14:37:55;1.90;;;0.50;;
54561;SDS011;40456;53.358;-1.486;2023-03-01T14:40:27;1.42;;;0.50;;
54561;SDS011;40456;53.358;-1.486;2023-03-01T14:42:58;1.10;;;0.40;;
54561;SDS011;40456;53.358;-1.486;2023-03-01T14:45:25;1.45;;;0.57;;
54561;SDS011;40456;53.358;-1.486;2023-03-01T14:47:51;1.27;;;0.75;;
54561;SDS011;40456;53.358;-1.486;2023-03-01T14:50:26;3.30;;;0.60;;
54561;SDS011;40456;53.358;-1.486;2023-03-01T14:52:54;0.95;;;0.63;;
54561;SDS011;40456;53.358;-1.486;2023-03-01T14:58:00;1.38;;;0.65;;
54561;SDS011;40456;53.358;-1.486;2023-03-01T15:00:29;0.85;;;0.60;;
54561;SDS011;40456;53.358;-1.486;2023-03-01T15:03:07;0.68;;;0.40;;
54561;SDS011;40456;53.358;-1.486;2023-03-01T15:05:40;1.85;;;0.85;;
54561;SDS011;40456;53.358;-1.486;2023-03-01T15:08:06;2.28;;;0.63;;
54561;SDS011;40456;53.358;-1.486;2023-03-01T15:10:34;1.08;;;0.50;;
54561;SDS011;40456;53.358;-1.486;2023-03-01T15:13:19;2.30;;;0.55;;
54561;SDS011;40456;53.358;-1.486;2023-03-01T15:15:47;1.38;;;0.77;;
54561;SDS011;40456;53.358;-1.486;2023-03-01T15:18:16;0.93;;;0.57;;
54561;SDS011;40456;53.358;-1.486;2023-03-01T15:20:47;1.67;;;0.52;;
54561;SDS011;40456;53.358;-1.486;2023-03-01T15:23:21;2.28;;;0.63;;
54561;SDS011;40456;53.358;-1.486;2023-03-01T15:25:49;3.55;;;0.70;;
54561;SDS011;40456;53.358;-1.486;2023-03-01T15:28:21;1.50;;;0.70;;
54561;SDS011;40456;53.358;-1.486;2023-03-01T15:30:55;1.42;;;0.70;;
54561;SDS011;40456;53.358;-1.486;2023-03-01T15:35:57;1.00;;;0.60;;
54561;SDS011;40456;53.358;-1.486;2023-03-01T15:40:51;2.83;;;0.80;;
54561;SDS011;40456;53.358;-1.486;2023-03-01T15:46:14;1.17;;;0.65;;
54561;SDS011;40456;53.358;-1.486;2023-03-01T15:48:46;2.15;;;0.43;;
54561;SDS011;40456;53.358;-1.486;2023-03-01T15:51:14;3.15;;;0.60;;
54561;SDS011;40456;53.358;-1.486;2023-03-01T15:53:40;1.80;;;0.70;;
54561;SDS011;40456;53.358;-1.486;2023-03-01T15:56:05;3.90;;;1.13;;
54561;SDS011;40456;53.358;-1.486;2023-03-01T15:58:32;2.95;;;0.95;;
54561;SDS011;40456;53.358;-1.486;2023-03-01T16:00:58;1.88;;;0.40;;
54561;SDS011;40456;53.358;-1.486;2023-03-01T16:03:24;1.90;;;0.60;;
54561;SDS011;40456;53.358;-1.486;2023-03-01T16:05:49;2.40;;;1.00;;
54561;SDS011;40456;53.358;-1.486;2023-03-01T16:08:16;2.20;;;1.35;;
54561;SDS011;40456;53.358;-1.486;2023-03-01T16:10:42;2.08;;;0.90;;
54561;SDS011;40456;53.358;-1.486;2023-03-01T16:13:13;2.60;;;0.88;;
54561;SDS011;40456;53.358;-1.486;2023-03-01T16:15:38;2.58;;;0.93;;
54561;SDS011;40456;53.358;-1.486;2023-03-01T16:18:04;4.15;;;1.30;;
54561;SDS011;40456;53.358;-1.486;2023-03-01T16:20:31;2.03;;;0.90;;
54561;SDS011;40456;53.358;-1.486;2023-03-01T16:22:57;2.78;;;1.15;;
54561;SDS011;40456;53.358;-1.486;2023-03-01T16:25:25;2.03;;;0.85;;
54561;SDS011;40456;53.358;-1.486;2023-03-01T16:27:50;1.80;;;0.80;;
54561;SDS011;40456;53.358;-1.486;2023-03-01T16:30:18;2.42;;;1.00;;
54561;SDS011;40456;53.358;-1.486;2023-03-01T16:32:46;1.70;;;0.57;;
54561;SDS011;40456;53.358;-1.486;2023-03-01T16:35:13;3.03;;;0.80;;
54561;SDS011;40456;53.358;-1.486;2023-03-01T16:37:40;2.58;;;0.65;;
54561;SDS011;40456;53.358;-1.486;2023-03-01T16:40:06;1.58;;;0.55;;
54561;SDS011;40456;53.358;-1.486;2023-03-01T16:42:50;1.88;;;0.70;;
54561;SDS011;40456;53.358;-1.486;2023-03-01T16:45:16;1.30;;;0.60;;
54561;SDS011;40456;53.358;-1.486;2023-03-01T16:47:41;1.52;;;0.60;;
54561;SDS011;40456;53.358;-1.486;2023-03-01T16:50:07;1.73;;;0.47;;
54561;SDS011;40456;53.358;-1.486;2023-03-01T16:52:33;3.95;;;1.13;;
54561;SDS011;40456;53.358;-1.486;2023-03-01T16:54:59;1.00;;;0.50;;
54561;SDS011;40456;53.358;-1.486;2023-03-01T16:57:25;2.25;;;0.70;;
54561;SDS011;40456;53.358;-1.486;2023-03-01T16:59:53;1.27;;;0.90;;
54561;SDS011;40456;53.358;-1.486;2023-03-01T17:02:18;1.30;;;0.60;;
54561;SDS011;40456;53.358;-1.486;2023-03-01T17:04:44;3.13;;;0.88;;
54561;SDS011;40456;53.358;-1.486;2023-03-01T17:07:10;3.33;;;0.52;;
54561;SDS011;40456;53.358;-1.486;2023-03-01T17:09:36;2.40;;;0.50;;